createdAt,value
2022-08-17T00:01:22.830Z,24.40
2022-08-17T00:06:27.358Z,24.40
2022-08-17T00:11:29.629Z,24.30
2022-08-17T00:16:55.440Z,24.20
2022-08-17T00:22:30.734Z,24.10
2022-08-17T00:27:12.023Z,24.10
2022-08-17T00:33:14.104Z,24.10
2022-08-17T00:37:30.426Z,24.10
2022-08-17T00:42:31.320Z,24.00
2022-08-17T00:47:31.469Z,24.00
2022-08-17T00:52:34.507Z,24.00
2022-08-17T00:57:36.303Z,23.90
2022-08-17T01:02:41.686Z,23.90
2022-08-17T01:07:41.816Z,23.80
2022-08-17T01:12:40.127Z,23.80
2022-08-17T01:17:39.926Z,23.70
2022-08-17T01:22:39.570Z,23.70
2022-08-17T01:27:38.788Z,23.70
2022-08-17T01:32:37.514Z,23.60
2022-08-17T01:37:39.016Z,23.60
2022-08-17T01:42:44.210Z,23.50
2022-08-17T01:47:42.786Z,23.50
2022-08-17T01:52:41.549Z,23.50
2022-08-17T01:57:41.158Z,23.40
2022-08-17T02:02:39.554Z,23.40
2022-08-17T02:07:59.933Z,23.40
2022-08-17T02:12:57.642Z,23.30
2022-08-17T02:17:55.854Z,23.20
2022-08-17T02:22:54.180Z,23.20
2022-08-17T02:27:52.680Z,23.10
2022-08-17T02:32:52.922Z,23.10
2022-08-17T02:37:51.914Z,23.00
2022-08-17T02:42:54.034Z,23.00
2022-08-17T02:47:54.137Z,23.00
2022-08-17T02:53:01.369Z,23.00
2022-08-17T02:58:00.488Z,22.90
2022-08-17T03:03:00.085Z,22.90
2022-08-17T03:07:58.753Z,22.80
2022-08-17T03:12:57.355Z,22.80
2022-08-17T03:17:56.726Z,22.80
2022-08-17T03:23:01.853Z,22.80
2022-08-17T03:28:01.481Z,22.80
2022-08-17T03:33:01.337Z,22.70
2022-08-17T03:38:01.609Z,22.70
2022-08-17T03:43:05.654Z,22.70
2022-08-17T03:48:21.533Z,22.70
2022-08-17T03:53:49.834Z,22.60
2022-08-17T03:58:48.559Z,22.60
2022-08-17T04:03:46.757Z,22.50
2022-08-17T04:08:46.812Z,22.50
2022-08-17T04:13:45.021Z,22.50
2022-08-17T04:18:43.231Z,22.50
2022-08-17T04:23:41.497Z,22.40
2022-08-17T04:28:41.574Z,22.30
2022-08-17T04:33:55.393Z,22.30
2022-08-17T04:38:53.615Z,22.30
2022-08-17T04:43:56.067Z,22.20
2022-08-17T04:48:56.338Z,22.20
2022-08-17T04:53:56.635Z,22.20
2022-08-17T04:58:58.362Z,22.20
2022-08-17T05:03:59.101Z,22.20
2022-08-17T05:08:58.574Z,22.20
2022-08-17T05:13:59.642Z,22.20
2022-08-17T05:18:59.144Z,22.30
2022-08-17T05:23:58.512Z,22.30
2022-08-17T05:29:02.511Z,22.40
2022-08-17T05:34:01.342Z,22.40
2022-08-17T05:38:59.521Z,22.50
2022-08-17T05:43:59.103Z,22.60
2022-08-17T05:49:02.637Z,22.70
2022-08-17T05:54:17.281Z,22.80
2022-08-17T05:59:25.270Z,22.80
2022-08-17T06:04:36.997Z,22.90
2022-08-17T06:09:41.296Z,22.90
2022-08-17T06:14:59.823Z,23.00
2022-08-17T06:20:01.406Z,23.10
2022-08-17T06:25:03.415Z,23.20
2022-08-17T06:30:09.219Z,23.30
2022-08-17T06:35:10.248Z,23.40
2022-08-17T06:40:47.945Z,23.50
2022-08-17T06:45:54.220Z,23.70
2022-08-17T06:50:55.852Z,23.90
2022-08-17T06:56:01.236Z,24.10
2022-08-17T07:01:07.040Z,24.40
2022-08-17T07:06:12.162Z,24.60
2022-08-17T07:11:15.629Z,24.90
2022-08-17T07:16:21.200Z,25.10
2022-08-17T07:21:30.192Z,25.30
2022-08-17T07:26:28.681Z,25.40
2022-08-17T07:31:33.488Z,25.60
2022-08-17T07:36:33.923Z,25.90
2022-08-17T07:41:53.283Z,26.20
2022-08-17T07:47:15.978Z,26.50
2022-08-17T07:52:48.227Z,26.70
2022-08-17T07:57:57.419Z,26.90
2022-08-17T08:03:13.286Z,27.20
2022-08-17T08:08:25.459Z,27.40
2022-08-17T08:13:25.415Z,27.50
2022-08-17T08:18:53.405Z,27.70
2022-08-17T08:23:53.809Z,27.90
2022-08-17T08:29:03.763Z,28.00
2022-08-17T08:34:55.853Z,28.20
2022-08-17T08:39:45.086Z,28.30
2022-08-17T08:45:01.121Z,28.60
2022-08-17T08:50:38.251Z,28.90
2022-08-17T08:55:48.545Z,29.10
2022-08-17T09:00:53.327Z,29.30
2022-08-17T09:06:33.527Z,29.40
2022-08-17T09:11:33.824Z,29.50
2022-08-17T09:16:38.759Z,29.60
2022-08-17T09:21:48.482Z,29.80
2022-08-17T09:26:52.376Z,30.00
2022-08-17T09:31:57.200Z,30.30
2022-08-17T09:37:10.223Z,30.40
2022-08-17T09:42:13.008Z,30.70
2022-08-17T09:47:17.266Z,30.90
2022-08-17T09:52:25.331Z,31.10
2022-08-17T09:57:36.236Z,31.20
2022-08-17T10:02:50.543Z,31.30
2022-08-17T10:08:00.657Z,31.50
2022-08-17T10:19:55.005Z,31.90
2022-08-17T10:25:22.615Z,32.10
2022-08-17T10:30:26.656Z,32.30
2022-08-17T10:35:37.023Z,32.50
2022-08-17T10:40:46.342Z,32.70
2022-08-17T10:46:13.381Z,32.90
2022-08-17T10:51:12.528Z,33.10
2022-08-17T10:56:40.398Z,33.30
2022-08-17T11:02:05.140Z,33.40
2022-08-17T11:07:15.525Z,33.60
2022-08-17T11:12:27.753Z,33.60
2022-08-17T11:17:50.786Z,33.60
2022-08-17T11:23:29.380Z,33.60
2022-08-17T11:28:34.483Z,33.80
2022-08-17T11:33:56.595Z,33.90
2022-08-17T11:39:03.287Z,34.10
2022-08-17T11:44:18.457Z,34.20
2022-08-17T11:49:41.636Z,34.30
2022-08-17T11:54:46.272Z,34.40
2022-08-17T12:00:01.020Z,34.50
2022-08-17T12:05:27.537Z,34.60
2022-08-17T12:10:31.878Z,34.70
2022-08-17T12:15:36.036Z,34.90
2022-08-17T12:20:36.567Z,35.00
2022-08-17T12:25:39.270Z,35.20
2022-08-17T12:30:39.021Z,35.30
2022-08-17T12:35:38.974Z,35.50
2022-08-17T12:40:37.450Z,35.60
2022-08-17T12:45:39.845Z,35.70
2022-08-17T12:50:41.013Z,35.80
2022-08-17T12:55:40.445Z,35.80
2022-08-17T13:00:47.601Z,35.80
2022-08-17T13:05:58.369Z,35.90
2022-08-17T13:10:58.083Z,35.90
2022-08-17T13:16:00.376Z,35.90
2022-08-17T13:21:01.106Z,35.90
2022-08-17T13:26:05.888Z,35.90
2022-08-17T13:36:33.546Z,36.00
2022-08-17T13:41:34.634Z,36.00
2022-08-17T13:46:34.096Z,35.90
2022-08-17T13:51:36.049Z,35.80
2022-08-17T13:56:57.709Z,35.70
2022-08-17T14:01:56.616Z,35.50
2022-08-17T14:06:59.311Z,35.30
2022-08-17T14:11:58.746Z,35.20
2022-08-17T14:16:57.732Z,35.20
2022-08-17T14:21:59.802Z,35.00
2022-08-17T14:26:59.016Z,35.00
2022-08-17T14:31:59.084Z,34.90
2022-08-17T14:36:58.785Z,34.90
2022-08-17T14:41:58.330Z,34.80
2022-08-17T14:46:56.701Z,34.80
2022-08-17T14:51:54.967Z,34.80
2022-08-17T14:57:09.415Z,34.70
2022-08-17T15:02:13.183Z,34.70
2022-08-17T15:07:11.393Z,34.50
2022-08-17T15:12:17.872Z,34.50
2022-08-17T15:17:16.715Z,34.40
2022-08-17T15:22:23.774Z,34.20
2022-08-17T15:27:24.348Z,34.10
2022-08-17T15:32:32.741Z,34.00
2022-08-17T15:37:32.256Z,33.80
2022-08-17T15:42:32.398Z,33.70
2022-08-17T15:47:30.634Z,33.60
2022-08-17T15:52:30.803Z,33.50
2022-08-17T15:57:29.112Z,33.50
2022-08-17T16:03:47.109Z,33.40
2022-08-17T16:07:50.077Z,33.30
2022-08-17T16:12:49.981Z,33.20
2022-08-17T16:17:50.151Z,33.10
2022-08-17T16:22:50.198Z,33.00
2022-08-17T16:27:53.505Z,32.90
2022-08-17T16:32:55.171Z,32.90
2022-08-17T16:44:41.926Z,32.80
2022-08-17T16:49:41.566Z,32.70
2022-08-17T16:54:43.587Z,32.60
2022-08-17T16:59:47.462Z,32.60
2022-08-17T17:04:54.262Z,32.50
2022-08-17T17:09:55.469Z,32.40
2022-08-17T17:14:59.278Z,32.30
2022-08-17T17:20:06.379Z,32.10
2022-08-17T17:25:13.911Z,32.00
2022-08-17T17:30:16.359Z,31.80
2022-08-17T17:35:20.775Z,31.70
2022-08-17T17:40:24.013Z,31.60
2022-08-17T17:45:25.862Z,31.60
2022-08-17T17:50:33.910Z,31.50
2022-08-17T17:55:43.529Z,31.50
2022-08-17T18:00:48.527Z,31.30
2022-08-17T18:06:01.120Z,31.10
2022-08-17T18:11:10.872Z,30.80
2022-08-17T18:16:14.696Z,30.50
2022-08-17T18:21:18.223Z,30.00
2022-08-17T18:26:37.800Z,29.30
2022-08-17T18:31:36.026Z,28.70
2022-08-17T18:36:37.355Z,28.50
2022-08-17T18:41:41.460Z,28.40
2022-08-17T18:46:40.113Z,28.30
2022-08-17T18:51:43.039Z,28.10
2022-08-17T18:56:43.654Z,27.90
2022-08-17T19:01:53.474Z,27.70
2022-08-17T19:07:04.832Z,27.70
2022-08-17T19:12:07.219Z,27.60
2022-08-17T19:17:10.358Z,27.50
2022-08-17T19:22:16.999Z,27.30
2022-08-17T19:27:41.615Z,27.30
2022-08-17T19:32:40.828Z,27.20
2022-08-17T19:37:47.205Z,27.10
2022-08-17T19:42:53.805Z,27.00
2022-08-17T19:48:03.083Z,26.90
2022-08-17T19:53:09.495Z,26.90
2022-08-17T19:58:17.927Z,26.80
2022-08-17T20:03:22.699Z,26.70
2022-08-17T20:08:27.323Z,26.60
2022-08-17T20:13:33.302Z,26.60
2022-08-17T20:18:37.737Z,26.50
2022-08-17T20:23:57.463Z,26.50
2022-08-17T20:29:37.220Z,26.40
2022-08-17T20:34:39.784Z,26.30
2022-08-17T20:39:42.955Z,26.20
2022-08-17T20:44:43.636Z,26.20
2022-08-17T20:49:51.881Z,26.10
2022-08-17T20:54:53.620Z,26.00
2022-08-17T20:59:57.148Z,26.00
2022-08-17T21:05:18.786Z,25.90
2022-08-17T21:10:29.978Z,25.80
2022-08-17T21:15:36.976Z,25.70
2022-08-17T21:20:42.574Z,25.70
2022-08-17T21:26:04.537Z,25.60
2022-08-17T21:31:09.033Z,25.50
2022-08-17T21:36:24.932Z,25.40
2022-08-17T21:41:27.463Z,25.40
2022-08-17T21:46:30.168Z,25.20
2022-08-17T21:51:32.531Z,25.00
2022-08-17T21:56:36.332Z,24.60
2022-08-17T22:01:38.209Z,24.40
2022-08-17T22:06:39.849Z,24.30
2022-08-17T22:11:56.298Z,24.10
2022-08-17T22:17:16.957Z,24.20
2022-08-17T22:22:34.446Z,24.10
2022-08-17T22:27:49.237Z,24.10
2022-08-17T22:32:49.849Z,24.00
2022-08-17T22:37:51.738Z,23.90
2022-08-17T22:42:51.629Z,23.80
2022-08-17T22:47:55.808Z,23.60
2022-08-17T22:53:16.517Z,23.50
2022-08-17T22:58:37.431Z,23.50
2022-08-17T23:03:54.352Z,23.40
2022-08-17T23:08:54.931Z,23.10
2022-08-17T23:13:56.238Z,23.20
2022-08-17T23:18:54.439Z,23.30
2022-08-17T23:23:52.666Z,23.30
2022-08-17T23:28:52.673Z,23.20
2022-08-17T23:33:55.579Z,23.20
2022-08-17T23:38:54.481Z,23.30
2022-08-17T23:43:55.127Z,23.40
2022-08-17T23:48:55.142Z,23.50
2022-08-17T23:53:58.126Z,23.50
2022-08-17T23:58:58.070Z,23.60
